Terminal Aerodrome Forecast
Issued by NWS

Home | Current Version | Previous Version | Text Only | Print | Product List | Glossary On
Versions: 1 2 3 4 5 6 7 8 9 10 11 12 13 14 15 16
000
FTUS43 KMQT 310533
TAFIWD
TAF
KIWD 310533Z 3106/0106 25007KT P6SM SCT070
     FM311300 29013G21KT P6SM SCT060
     FM312100 29013G21KT P6SM VCSH BKN070
     FM010000 27006KT P6SM SCT070
      AMD LTD TO CLD VIS AND WIND=

USA.gov is the U.S. government's official web portal to all federal, state and local government web resources and services.